createdAt,value
2022-11-05T10:14:20.079Z,21.63
2022-11-05T10:16:46.712Z,30.48
2022-11-05T10:19:13.366Z,38.50
2022-11-05T10:24:26.863Z,30.47
2022-11-05T10:26:53.730Z,27.02
2022-11-05T10:29:20.345Z,29.88
2022-11-05T10:31:46.944Z,29.25
2022-11-05T10:34:13.567Z,27.05
2022-11-05T10:36:40.173Z,26.13
2022-11-05T10:39:06.794Z,26.33
2022-11-05T10:41:33.401Z,23.80
2022-11-05T10:44:00.223Z,25.08
2022-11-05T10:46:26.865Z,25.67
2022-11-05T10:48:53.496Z,22.07
2022-11-05T10:51:20.110Z,24.27
2022-11-05T10:53:46.717Z,23.98
2022-11-05T10:56:14.423Z,22.77
2022-11-05T10:58:41.028Z,20.17
2022-11-05T11:01:07.672Z,23.63
2022-11-05T11:03:34.600Z,23.42
2022-11-05T11:06:01.210Z,21.73
2022-11-05T11:08:27.842Z,20.45
2022-11-05T11:10:54.482Z,18.77
2022-11-05T11:13:21.325Z,22.03
2022-11-05T11:15:47.949Z,19.92
2022-11-05T11:18:14.557Z,17.42
2022-11-05T11:20:41.183Z,15.13
2022-11-05T11:23:08.020Z,21.08
2022-11-05T11:25:34.625Z,16.97
2022-11-05T11:28:01.471Z,17.13
2022-11-05T11:30:28.077Z,19.40
2022-11-05T11:32:54.720Z,19.00
2022-11-05T11:35:21.640Z,15.23
2022-11-05T11:37:48.277Z,21.37
2022-11-05T11:40:15.133Z,14.45
2022-11-05T11:42:41.776Z,14.27
2022-11-05T11:45:08.427Z,13.00
2022-11-05T11:47:35.045Z,18.50
2022-11-05T11:50:01.692Z,13.67
2022-11-05T11:52:28.321Z,11.73
2022-11-05T11:54:54.945Z,14.60
2022-11-05T11:57:21.776Z,23.92
2022-11-05T12:00:07.802Z,14.23
2022-11-05T12:02:35.305Z,15.63
2022-11-05T12:05:02.066Z,13.23
2022-11-05T12:07:28.924Z,15.65
2022-11-05T12:09:55.546Z,14.82
2022-11-05T12:12:22.174Z,11.60
2022-11-05T12:14:48.796Z,17.97
2022-11-05T12:17:15.427Z,17.05
2022-11-05T12:19:42.304Z,14.57
2022-11-05T12:22:08.931Z,14.48
2022-11-05T12:24:35.544Z,12.63
2022-11-05T12:27:02.180Z,14.40
2022-11-05T12:29:34.441Z,14.57
2022-11-05T12:32:02.495Z,15.27
2022-11-05T12:34:29.344Z,11.90
2022-11-05T12:36:55.953Z,10.85
2022-11-05T12:39:22.566Z,13.73
2022-11-05T12:41:49.197Z,7.90
2022-11-05T12:44:15.836Z,9.98
2022-11-05T12:46:42.483Z,13.18
2022-11-05T12:49:09.116Z,14.68
2022-11-05T12:51:35.960Z,14.57
2022-11-05T12:54:02.773Z,10.48
2022-11-05T12:56:29.405Z,10.82
2022-11-05T12:58:56.026Z,12.50
2022-11-05T13:01:22.730Z,12.90
2022-11-05T13:03:49.428Z,10.93
2022-11-05T13:06:16.041Z,16.50
2022-11-05T13:08:42.667Z,15.52
2022-11-05T13:11:09.322Z,12.18
2022-11-05T13:13:35.937Z,12.57
2022-11-05T13:16:02.724Z,16.27
2022-11-05T13:18:29.708Z,16.77
2022-11-05T13:20:56.339Z,12.63
2022-11-05T13:23:22.969Z,14.00
2022-11-05T13:25:49.821Z,11.82
2022-11-05T13:28:16.660Z,19.33
2022-11-05T13:30:43.275Z,11.13
2022-11-05T13:33:10.250Z,7.38
2022-11-05T13:35:37.165Z,13.55
2022-11-05T13:38:03.801Z,13.48
2022-11-05T13:40:30.419Z,11.60
2022-11-05T13:42:57.046Z,10.85
2022-11-05T13:45:23.907Z,9.55
2022-11-05T13:47:50.749Z,8.98
2022-11-05T13:50:17.377Z,11.57
2022-11-05T13:52:44.018Z,7.17
2022-11-05T13:55:10.663Z,10.43
2022-11-05T13:57:37.283Z,9.55
2022-11-05T14:00:04.198Z,9.75
2022-11-05T14:02:31.076Z,9.18
2022-11-05T14:05:00.941Z,10.27
2022-11-05T14:07:28.088Z,7.82
2022-11-05T14:09:54.690Z,9.98
2022-11-05T14:12:21.294Z,6.22
2022-11-05T14:14:47.912Z,9.57
2022-11-05T14:17:14.540Z,7.30
2022-11-05T14:19:41.149Z,9.02
2022-11-05T14:22:07.996Z,7.18
2022-11-05T14:24:34.606Z,5.35
2022-11-05T14:27:01.244Z,11.52
2022-11-05T14:29:27.883Z,9.93
2022-11-05T14:32:08.263Z,7.13
2022-11-05T14:34:35.500Z,7.70
2022-11-05T14:37:02.127Z,6.47
2022-11-05T14:39:28.744Z,6.38
2022-11-05T14:41:55.377Z,6.93
2022-11-05T14:44:22.239Z,8.23
2022-11-05T14:46:48.865Z,5.80
2022-11-05T14:49:15.498Z,6.07
2022-11-05T14:51:42.128Z,5.70
2022-11-05T14:54:08.760Z,5.90
2022-11-05T14:56:35.635Z,6.30
2022-11-05T14:59:02.263Z,4.93
2022-11-05T15:01:29.029Z,6.07
2022-11-05T15:03:55.825Z,6.82
2022-11-05T15:06:22.516Z,8.27
2022-11-05T15:08:49.163Z,5.93
2022-11-05T15:11:15.773Z,7.07
2022-11-05T15:13:42.396Z,4.97
2022-11-05T15:16:09.014Z,6.20
2022-11-05T15:18:35.627Z,6.10
2022-11-05T15:21:02.245Z,9.23
2022-11-05T15:23:28.878Z,5.53
2022-11-05T15:25:55.494Z,4.72
2022-11-05T15:28:22.331Z,6.15
2022-11-05T15:30:48.952Z,7.60
2022-11-05T15:33:15.589Z,5.15
2022-11-05T15:35:42.204Z,5.07
2022-11-05T15:38:08.830Z,6.32
2022-11-05T15:40:35.475Z,4.28
2022-11-05T15:43:02.123Z,5.30
2022-11-05T15:45:28.738Z,5.05
2022-11-05T15:47:55.345Z,6.63
2022-11-05T15:50:21.984Z,4.97
2022-11-05T15:52:48.596Z,5.40
2022-11-05T15:55:15.438Z,5.57
2022-11-05T15:57:46.447Z,4.22
2022-11-05T16:00:16.298Z,5.05
2022-11-05T16:02:42.963Z,6.38
2022-11-05T16:05:09.621Z,4.50
2022-11-05T16:07:36.239Z,3.73
2022-11-05T16:10:06.036Z,6.45
2022-11-05T16:12:35.215Z,7.38
2022-11-05T16:15:01.837Z,14.00
2022-11-05T16:17:28.450Z,9.02
2022-11-05T16:19:55.082Z,7.50
2022-11-05T16:22:21.727Z,6.82
2022-11-05T16:24:48.486Z,8.00
2022-11-05T16:27:19.161Z,12.30
2022-11-05T16:29:46.381Z,13.10
2022-11-05T16:32:13.016Z,10.73
2022-11-05T16:34:39.646Z,12.30
2022-11-05T16:37:06.502Z,12.40
2022-11-05T16:39:33.104Z,13.05
2022-11-05T16:41:59.709Z,14.13
2022-11-05T16:44:26.347Z,7.30
2022-11-05T16:46:52.973Z,13.93
2022-11-05T16:49:19.590Z,13.82
2022-11-05T16:51:46.226Z,9.23
2022-11-05T16:54:12.854Z,9.38
2022-11-05T16:56:39.704Z,15.10
2022-11-05T16:59:06.561Z,12.90
2022-11-05T17:01:33.302Z,7.93
2022-11-05T17:04:00.033Z,8.70
2022-11-05T17:06:26.676Z,8.15
2022-11-05T17:08:53.304Z,7.73
2022-11-05T17:11:19.910Z,7.25
2022-11-05T17:13:46.560Z,14.23
2022-11-05T17:16:13.434Z,5.95
2022-11-05T17:18:40.038Z,10.63
2022-11-05T17:21:06.673Z,10.33
2022-11-05T17:23:33.318Z,10.48
2022-11-05T17:25:59.936Z,9.07
2022-11-05T17:28:27.292Z,12.65
2022-11-05T17:30:53.984Z,11.73
2022-11-05T17:33:20.973Z,12.43
2022-11-05T17:35:47.671Z,12.00
2022-11-05T17:38:14.302Z,16.52
2022-11-05T17:40:41.156Z,11.13
2022-11-05T17:43:07.783Z,10.93
2022-11-05T17:45:34.415Z,13.63
2022-11-05T17:48:01.254Z,15.18
2022-11-05T17:50:27.870Z,7.72
2022-11-05T17:52:54.711Z,11.00
2022-11-05T17:55:21.333Z,10.73
2022-11-05T17:57:47.962Z,6.63
2022-11-05T18:00:14.599Z,10.63
2022-11-05T18:02:41.285Z,9.93
2022-11-05T18:05:08.161Z,10.25
2022-11-05T18:07:34.826Z,10.30
2022-11-05T18:10:01.447Z,10.83
2022-11-05T18:12:28.063Z,12.70
2022-11-05T18:14:55.064Z,6.30
2022-11-05T18:17:21.681Z,8.27
2022-11-05T18:19:48.314Z,8.30
2022-11-05T18:22:14.933Z,6.07
2022-11-05T18:24:41.570Z,7.57
2022-11-05T18:27:08.428Z,7.93
2022-11-05T18:29:35.097Z,7.43
2022-11-05T18:32:01.949Z,8.60
2022-11-05T18:34:28.576Z,6.77
2022-11-05T18:36:56.518Z,7.72
2022-11-05T18:39:23.415Z,7.30
2022-11-05T18:41:50.293Z,5.30
2022-11-05T18:44:16.937Z,6.75
2022-11-05T18:46:57.779Z,8.93
2022-11-05T18:49:25.223Z,5.55
2022-11-05T18:51:51.838Z,5.95
2022-11-05T18:54:18.445Z,7.80
2022-11-05T18:56:45.062Z,6.40
2022-11-05T18:59:35.234Z,7.70
2022-11-05T19:01:58.601Z,8.73
2022-11-05T19:04:25.534Z,6.82
2022-11-05T19:06:52.158Z,7.20
2022-11-05T19:09:18.897Z,5.60
2022-11-05T19:11:45.555Z,7.53
2022-11-05T19:14:12.167Z,6.45
2022-11-05T19:16:39.035Z,6.43
2022-11-05T19:19:05.650Z,7.47
2022-11-05T19:21:32.252Z,8.32
2022-11-05T19:23:58.991Z,9.03
2022-11-05T19:26:28.612Z,8.88
2022-11-05T19:28:55.721Z,11.25
2022-11-05T19:31:22.359Z,12.30
2022-11-05T19:33:49.212Z,16.50
2022-11-05T19:36:15.855Z,11.20
2022-11-05T19:38:42.494Z,14.43
2022-11-05T19:41:09.106Z,12.85
2022-11-05T19:43:35.736Z,12.15
2022-11-05T19:46:02.360Z,9.02
2022-11-05T19:48:28.985Z,12.57
2022-11-05T19:50:55.609Z,12.40
2022-11-05T19:53:22.217Z,13.02
2022-11-05T19:55:49.063Z,12.68
2022-11-05T19:58:15.753Z,10.32
2022-11-05T20:00:42.393Z,13.90
2022-11-05T20:03:09.308Z,13.82
2022-11-05T20:05:35.993Z,11.25
2022-11-05T20:08:02.610Z,11.23
2022-11-05T20:10:29.247Z,11.15
2022-11-05T20:12:55.867Z,9.07
2022-11-05T20:15:22.726Z,9.65
2022-11-05T20:17:49.349Z,9.90
2022-11-05T20:20:15.981Z,9.93
2022-11-05T20:22:42.609Z,11.40
2022-11-05T20:25:09.234Z,9.27
2022-11-05T20:27:36.092Z,10.77
2022-11-05T20:30:02.739Z,7.68
2022-11-05T20:32:29.377Z,9.63
2022-11-05T20:34:56.018Z,7.18
2022-11-05T20:37:22.650Z,9.27
2022-11-05T20:39:49.488Z,5.57
2022-11-05T20:42:16.100Z,8.80
2022-11-05T20:44:42.745Z,6.85
2022-11-05T20:47:09.877Z,8.25
2022-11-05T20:49:36.506Z,7.87
2022-11-05T20:52:03.356Z,6.43
2022-11-05T20:54:29.977Z,6.82
2022-11-05T20:56:56.594Z,6.35
2022-11-05T20:59:23.507Z,5.45
2022-11-05T21:01:50.275Z,6.73
2022-11-05T21:04:17.260Z,6.53
2022-11-05T21:06:43.874Z,7.97
2022-11-05T21:09:10.477Z,7.28
2022-11-05T21:11:37.338Z,6.32
2022-11-05T21:14:03.955Z,5.53
2022-11-05T21:16:30.594Z,6.78
2022-11-05T21:18:57.429Z,6.38
2022-11-05T21:21:24.038Z,7.78
2022-11-05T21:23:50.663Z,8.18
2022-11-05T21:26:17.293Z,7.67
2022-11-05T21:28:44.134Z,6.38
2022-11-05T21:31:10.755Z,6.30
2022-11-05T21:33:37.379Z,5.63
2022-11-05T21:36:04.241Z,9.23
2022-11-05T21:38:30.846Z,7.63
2022-11-05T21:40:57.474Z,9.18
2022-11-05T21:43:24.089Z,9.20
2022-11-05T21:45:50.698Z,8.95
2022-11-05T21:48:17.571Z,13.88
2022-11-05T21:50:44.189Z,11.27
2022-11-05T21:53:10.826Z,9.98
2022-11-05T21:55:37.702Z,10.73
2022-11-05T21:58:04.319Z,9.10
2022-11-05T22:00:30.926Z,8.38
2022-11-05T22:02:57.593Z,9.50
2022-11-05T22:05:24.251Z,10.60
2022-11-05T22:07:51.123Z,8.77
2022-11-05T22:10:17.881Z,12.38
2022-11-05T22:12:44.515Z,10.15
2022-11-05T22:15:11.139Z,6.63
2022-11-05T22:17:40.396Z,5.10
2022-11-05T22:20:09.209Z,5.80
2022-11-05T22:22:36.035Z,7.13
2022-11-05T22:25:02.663Z,9.45
2022-11-05T22:27:29.269Z,19.40
2022-11-05T22:29:56.122Z,6.55
2022-11-05T22:32:22.976Z,7.88
2022-11-05T22:34:49.932Z,5.75
2022-11-05T22:37:16.540Z,6.20
2022-11-05T22:39:43.408Z,8.47
2022-11-05T22:42:10.120Z,6.28
2022-11-05T22:44:36.779Z,5.65
2022-11-05T22:47:03.606Z,6.20
2022-11-05T22:49:30.234Z,5.28
2022-11-05T22:51:57.082Z,4.93
2022-11-05T22:54:23.922Z,5.93
2022-11-05T22:56:50.766Z,4.88
2022-11-05T22:59:17.398Z,5.20
2022-11-05T23:01:44.215Z,4.43
2022-11-05T23:04:10.974Z,6.33
2022-11-05T23:06:37.817Z,4.05
2022-11-05T23:09:04.469Z,7.72
2022-11-05T23:11:31.102Z,5.35
2022-11-05T23:13:57.741Z,6.25
2022-11-05T23:16:24.581Z,3.77
2022-11-05T23:18:51.185Z,5.53
2022-11-05T23:21:21.953Z,6.28
2022-11-05T23:23:50.338Z,4.40
2022-11-05T23:26:16.998Z,4.45
2022-11-05T23:28:43.855Z,3.57
2022-11-05T23:31:10.468Z,9.20
2022-11-05T23:33:37.119Z,5.38
2022-11-05T23:36:03.738Z,4.47
2022-11-05T23:38:30.384Z,5.03
2022-11-05T23:40:56.997Z,9.20
2022-11-05T23:43:23.611Z,3.83
2022-11-05T23:45:50.238Z,4.30
2022-11-05T23:48:17.216Z,4.60
2022-11-05T23:50:44.146Z,4.25
2022-11-05T23:53:10.970Z,3.60
2022-11-05T23:55:37.611Z,7.22
2022-11-05T23:58:04.234Z,5.32
